createdAt,value
2023-05-18T00:02:16.129Z,87.65
2023-05-18T00:04:49.112Z,88.13
2023-05-18T00:07:22.570Z,88.91
2023-05-18T00:09:55.487Z,89.43
2023-05-18T00:12:28.444Z,89.15
2023-05-18T00:15:02.739Z,89.60
2023-05-18T00:17:35.759Z,90.02
2023-05-18T00:20:09.775Z,90.87
2023-05-18T00:22:42.996Z,91.25
2023-05-18T00:25:15.908Z,91.88
2023-05-18T00:27:50.042Z,92.46
2023-05-18T00:30:26.255Z,93.01
2023-05-18T00:32:59.457Z,92.41
2023-05-18T00:35:32.527Z,92.57
2023-05-18T00:38:05.649Z,92.60
2023-05-18T00:40:38.607Z,92.77
2023-05-18T00:43:11.806Z,93.06
2023-05-18T00:45:46.139Z,92.56
2023-05-18T00:48:19.308Z,93.08
2023-05-18T00:50:52.157Z,93.00
2023-05-18T00:53:25.011Z,93.54
2023-05-18T00:55:58.118Z,93.02
2023-05-18T00:58:31.326Z,92.77
2023-05-18T01:01:06.276Z,92.70
2023-05-18T01:03:39.853Z,93.93
2023-05-18T01:06:13.010Z,94.15
2023-05-18T01:08:46.066Z,94.25
2023-05-18T01:11:28.155Z,93.96
2023-05-18T01:14:07.775Z,93.77
2023-05-18T01:16:46.421Z,93.99
2023-05-18T01:19:51.434Z,94.35
2023-05-18T01:22:38.743Z,94.74
2023-05-18T01:25:19.621Z,94.75
2023-05-18T01:27:56.221Z,95.78
2023-05-18T01:30:29.328Z,95.91
2023-05-18T01:33:02.324Z,96.03
2023-05-18T01:35:35.570Z,96.47
2023-05-18T01:38:08.987Z,97.02
2023-05-18T01:40:49.296Z,97.53
2023-05-18T01:43:29.565Z,97.49
2023-05-18T01:46:06.129Z,98.05
2023-05-18T01:48:42.877Z,96.73
2023-05-18T01:51:21.323Z,96.46
2023-05-18T01:54:01.811Z,97.76
2023-05-18T01:56:36.995Z,98.08
2023-05-18T01:59:12.064Z,98.12
2023-05-18T02:01:45.926Z,97.82
2023-05-18T02:04:18.902Z,96.84
2023-05-18T02:06:54.275Z,96.66
2023-05-18T02:09:27.758Z,96.61
2023-05-18T02:12:00.894Z,95.76
2023-05-18T02:14:35.549Z,95.34
2023-05-18T02:17:08.558Z,95.20
2023-05-18T02:19:41.459Z,95.52
2023-05-18T02:22:14.432Z,95.22
2023-05-18T02:24:47.562Z,95.17
2023-05-18T02:27:20.845Z,95.34
2023-05-18T02:29:56.905Z,94.71
2023-05-18T02:32:32.569Z,95.04
2023-05-18T02:35:06.852Z,94.78
2023-05-18T02:37:42.389Z,94.96
2023-05-18T02:40:16.288Z,94.71
2023-05-18T02:42:49.594Z,94.54
2023-05-18T02:45:24.180Z,94.73
2023-05-18T02:47:57.236Z,94.43
2023-05-18T02:50:30.472Z,94.41
2023-05-18T02:53:03.675Z,94.59
2023-05-18T02:55:37.715Z,94.74
2023-05-18T02:58:20.470Z,95.03
2023-05-18T03:01:21.488Z,95.27
2023-05-18T03:03:58.466Z,96.14
2023-05-18T03:06:32.531Z,95.28
2023-05-18T03:09:05.747Z,95.30
2023-05-18T03:11:44.510Z,95.08
2023-05-18T03:14:17.574Z,95.21
2023-05-18T03:16:54.405Z,95.29
2023-05-18T03:19:29.545Z,96.34
2023-05-18T03:22:03.874Z,97.90
2023-05-18T03:24:40.346Z,98.16
2023-05-18T03:27:18.523Z,97.52
2023-05-18T03:29:53.201Z,96.82
2023-05-18T03:32:28.469Z,96.92
2023-05-18T03:35:02.160Z,96.33
2023-05-18T03:37:35.814Z,96.58
2023-05-18T03:40:15.784Z,96.44
2023-05-18T03:42:50.578Z,96.80
2023-05-18T03:45:23.649Z,96.34
2023-05-18T03:47:58.430Z,96.08
2023-05-18T03:50:31.740Z,96.18
2023-05-18T03:53:06.534Z,95.63
2023-05-18T03:55:39.699Z,96.83
2023-05-18T03:58:12.844Z,97.58
2023-05-18T04:00:46.006Z,99.32
2023-05-18T04:03:21.768Z,99.92
2023-05-18T04:05:55.963Z,100.00
2023-05-18T04:08:30.353Z,100.00
2023-05-18T04:11:05.138Z,100.00
2023-05-18T04:13:39.596Z,100.00
2023-05-18T04:16:13.770Z,100.00
2023-05-18T04:18:48.489Z,100.00
2023-05-18T04:21:21.643Z,100.00
2023-05-18T04:23:54.886Z,100.00
2023-05-18T04:26:28.049Z,100.00
2023-05-18T04:29:01.872Z,100.00
2023-05-18T04:31:35.750Z,100.00
2023-05-18T04:34:10.185Z,100.00
2023-05-18T04:36:44.412Z,99.93
2023-05-18T04:39:18.557Z,99.59
2023-05-18T04:41:58.072Z,99.66
2023-05-18T04:44:34.228Z,100.00
2023-05-18T04:47:08.478Z,99.94
2023-05-18T04:49:43.791Z,100.00
2023-05-18T04:52:17.088Z,100.00
2023-05-18T04:54:50.137Z,99.95
2023-05-18T04:57:23.572Z,100.00
2023-05-18T04:59:58.425Z,100.00
2023-05-18T05:02:31.657Z,100.00
2023-05-18T05:05:06.978Z,100.00
2023-05-18T05:07:41.138Z,100.00
2023-05-18T05:10:15.904Z,100.00
2023-05-18T05:12:51.492Z,100.00
2023-05-18T05:15:25.483Z,100.00
2023-05-18T05:17:59.995Z,100.00
2023-05-18T05:20:34.692Z,100.00
2023-05-18T05:23:08.714Z,100.00
2023-05-18T05:25:45.073Z,100.00
2023-05-18T05:28:18.197Z,100.00
2023-05-18T05:30:51.376Z,100.00
2023-05-18T05:33:24.363Z,100.00
2023-05-18T05:35:58.727Z,100.00
2023-05-18T05:38:32.018Z,99.16
2023-05-18T05:41:05.121Z,98.66
2023-05-18T05:43:38.073Z,97.00
2023-05-18T05:46:12.246Z,95.52
2023-05-18T05:48:45.555Z,93.74
2023-05-18T05:51:19.830Z,92.17
2023-05-18T05:53:53.425Z,91.01
2023-05-18T05:56:27.395Z,90.45
2023-05-18T05:59:01.026Z,88.57
2023-05-18T06:01:34.896Z,87.32
2023-05-18T06:04:10.856Z,85.63
2023-05-18T06:06:45.557Z,85.35
2023-05-18T06:09:18.769Z,84.66
2023-05-18T06:11:52.956Z,84.68
2023-05-18T06:14:26.275Z,84.62
2023-05-18T06:17:00.061Z,84.16
2023-05-18T06:19:33.400Z,83.29
2023-05-18T06:22:08.003Z,83.06
2023-05-18T06:24:49.884Z,81.12
2023-05-18T06:27:52.441Z,80.21
2023-05-18T06:30:41.565Z,81.22
2023-05-18T06:33:41.109Z,78.50
2023-05-18T06:36:14.204Z,79.00
2023-05-18T06:38:48.491Z,78.79
2023-05-18T06:41:22.481Z,77.58
2023-05-18T06:43:56.242Z,75.50
2023-05-18T06:46:30.078Z,75.46
2023-05-18T06:49:08.551Z,75.04
2023-05-18T06:51:41.813Z,71.83
2023-05-18T06:54:17.549Z,72.12
2023-05-18T06:56:50.821Z,71.00
2023-05-18T06:59:23.742Z,71.62
2023-05-18T07:01:56.776Z,72.52
2023-05-18T07:04:31.025Z,71.12
2023-05-18T07:07:04.284Z,71.67
2023-05-18T07:09:38.611Z,73.85
2023-05-18T07:12:11.546Z,72.75
2023-05-18T07:14:44.744Z,70.76
2023-05-18T07:17:17.630Z,68.93
2023-05-18T07:19:50.440Z,68.70
2023-05-18T07:22:23.342Z,67.30
2023-05-18T07:24:59.032Z,67.27
2023-05-18T07:27:33.349Z,66.03
2023-05-18T07:30:08.254Z,64.70
2023-05-18T07:32:41.362Z,65.60
2023-05-18T07:35:16.783Z,63.62
2023-05-18T07:37:51.833Z,63.05
2023-05-18T07:40:26.160Z,61.66
2023-05-18T07:42:59.047Z,62.64
2023-05-18T07:45:32.505Z,60.56
2023-05-18T07:48:07.819Z,61.70
2023-05-18T07:50:41.492Z,60.18
2023-05-18T07:53:14.252Z,60.10
2023-05-18T07:55:49.959Z,59.17
2023-05-18T07:58:22.811Z,60.71
2023-05-18T08:00:55.673Z,61.54
2023-05-18T08:03:28.608Z,59.56
2023-05-18T08:06:01.511Z,58.02
2023-05-18T08:08:36.242Z,57.86
2023-05-18T08:11:10.395Z,58.98
2023-05-18T08:13:44.541Z,57.51
2023-05-18T08:16:17.545Z,55.87
2023-05-18T08:18:50.614Z,56.85
2023-05-18T08:21:23.544Z,55.80
2023-05-18T08:23:56.508Z,56.56
2023-05-18T08:26:30.791Z,56.18
2023-05-18T08:29:09.578Z,53.80
2023-05-18T08:31:42.755Z,53.63
2023-05-18T08:34:29.358Z,54.22
2023-05-18T08:37:02.310Z,53.07
2023-05-18T08:39:36.829Z,53.21
2023-05-18T08:42:20.589Z,55.74
2023-05-18T08:45:12.158Z,52.97
2023-05-18T08:47:45.984Z,52.56
2023-05-18T08:50:24.511Z,51.97
2023-05-18T08:53:01.992Z,51.50
2023-05-18T08:55:37.261Z,52.36
2023-05-18T08:58:18.648Z,51.90
2023-05-18T09:00:54.687Z,50.30
2023-05-18T09:03:27.582Z,50.98
2023-05-18T09:06:01.720Z,52.18
2023-05-18T09:08:35.129Z,50.35
2023-05-18T09:11:09.463Z,49.70
2023-05-18T09:13:44.882Z,47.95
2023-05-18T09:16:18.588Z,48.04
2023-05-18T09:18:52.138Z,49.34
2023-05-18T09:21:25.049Z,48.11
2023-05-18T09:23:58.199Z,47.91
2023-05-18T09:26:31.374Z,47.96
2023-05-18T09:29:17.012Z,49.57
2023-05-18T09:31:50.230Z,47.67
2023-05-18T09:34:24.603Z,46.85
2023-05-18T09:36:58.091Z,47.23
2023-05-18T09:39:31.404Z,49.16
2023-05-18T09:42:04.863Z,49.10
2023-05-18T09:44:39.049Z,47.46
2023-05-18T09:47:11.874Z,47.29
2023-05-18T09:49:45.026Z,47.67
2023-05-18T09:52:17.846Z,47.94
2023-05-18T09:54:58.758Z,47.08
2023-05-18T09:57:31.754Z,47.10
2023-05-18T10:00:11.010Z,48.06
2023-05-18T10:02:48.960Z,47.42
2023-05-18T10:05:23.788Z,45.05
2023-05-18T10:07:59.269Z,46.41
2023-05-18T10:10:32.499Z,44.98
2023-05-18T10:13:06.112Z,46.14
2023-05-18T10:15:48.417Z,45.22
2023-05-18T10:18:24.164Z,45.59
2023-05-18T10:21:00.185Z,46.32
2023-05-18T10:23:34.873Z,46.84
2023-05-18T10:26:09.907Z,47.69
2023-05-18T10:28:44.568Z,46.60
2023-05-18T10:31:21.621Z,46.34
2023-05-18T10:33:54.447Z,45.29
2023-05-18T10:36:30.034Z,46.54
2023-05-18T10:39:04.582Z,44.37
2023-05-18T10:41:39.177Z,44.60
2023-05-18T10:44:12.498Z,43.99
2023-05-18T10:46:47.000Z,43.90
2023-05-18T10:49:25.203Z,44.98
2023-05-18T10:51:59.043Z,44.73
2023-05-18T10:54:32.221Z,44.19
2023-05-18T10:57:05.211Z,41.96
2023-05-18T10:59:42.965Z,43.58
2023-05-18T11:02:19.999Z,45.97
2023-05-18T11:04:54.487Z,44.51
2023-05-18T11:07:30.530Z,43.31
2023-05-18T11:10:04.366Z,45.88
2023-05-18T11:12:39.254Z,45.51
2023-05-18T11:15:12.688Z,45.04
2023-05-18T11:17:47.117Z,45.40
2023-05-18T11:20:20.074Z,43.16
2023-05-18T11:23:02.874Z,45.21
2023-05-18T11:25:44.863Z,43.08
2023-05-18T11:28:37.425Z,44.51
2023-05-18T11:31:19.221Z,43.49
2023-05-18T11:33:54.045Z,43.08
2023-05-18T11:36:28.951Z,43.13
2023-05-18T11:39:06.828Z,43.09
2023-05-18T11:41:42.674Z,43.87
2023-05-18T11:44:17.737Z,44.50
2023-05-18T11:47:01.105Z,43.71
2023-05-18T11:49:43.771Z,44.57
2023-05-18T11:52:20.889Z,44.06
2023-05-18T11:54:55.570Z,43.37
2023-05-18T11:57:40.759Z,43.37
2023-05-18T12:00:16.076Z,44.81
2023-05-18T12:02:52.641Z,43.38
2023-05-18T12:05:32.113Z,43.61
2023-05-18T12:08:06.105Z,43.21
2023-05-18T12:10:40.018Z,45.15
2023-05-18T12:13:18.764Z,42.90
2023-05-18T12:15:53.173Z,44.54
2023-05-18T12:18:29.944Z,42.38
2023-05-18T12:21:07.112Z,43.98
2023-05-18T12:23:40.235Z,41.57
2023-05-18T12:26:14.414Z,43.44
2023-05-18T12:28:47.766Z,44.38
2023-05-18T12:31:20.932Z,43.70
2023-05-18T12:33:56.752Z,43.67
2023-05-18T12:36:33.766Z,43.20
2023-05-18T12:39:07.031Z,45.29
2023-05-18T12:41:39.860Z,42.22
2023-05-18T12:44:12.829Z,42.75
2023-05-18T12:46:46.056Z,42.73
2023-05-18T12:49:20.228Z,43.92
2023-05-18T12:51:56.914Z,44.09
2023-05-18T12:54:30.705Z,43.97
2023-05-18T12:57:07.743Z,43.87
2023-05-18T12:59:49.485Z,44.18
2023-05-18T13:02:31.552Z,45.20
2023-05-18T13:05:07.567Z,45.00
2023-05-18T13:07:43.532Z,43.30
2023-05-18T13:10:19.582Z,44.48
2023-05-18T13:12:54.178Z,42.59
2023-05-18T13:15:26.972Z,43.27
2023-05-18T13:18:01.400Z,42.63
2023-05-18T13:20:36.703Z,41.96
2023-05-18T13:23:14.161Z,43.36
2023-05-18T13:25:47.295Z,41.69
2023-05-18T13:28:22.792Z,42.91
2023-05-18T13:30:55.850Z,42.57
2023-05-18T13:33:28.602Z,40.28
2023-05-18T13:36:03.174Z,40.43
2023-05-18T13:38:38.007Z,38.25
2023-05-18T13:41:12.362Z,42.12
2023-05-18T13:43:45.375Z,41.48
2023-05-18T13:46:18.890Z,43.07
2023-05-18T13:48:51.877Z,41.97
2023-05-18T13:51:24.761Z,43.92
2023-05-18T13:53:59.204Z,40.90
2023-05-18T13:56:32.190Z,41.93
2023-05-18T13:59:04.980Z,43.04
2023-05-18T14:01:38.049Z,41.73
2023-05-18T14:04:11.232Z,41.14
2023-05-18T14:06:44.026Z,41.46
2023-05-18T14:09:18.308Z,41.18
2023-05-18T14:11:53.659Z,44.12
2023-05-18T14:14:26.792Z,43.05
2023-05-18T14:16:59.865Z,44.32
2023-05-18T14:19:32.974Z,43.36
2023-05-18T14:22:06.260Z,42.45
2023-05-18T14:24:40.476Z,41.91
2023-05-18T14:27:13.330Z,41.01
2023-05-18T14:29:46.261Z,42.79
2023-05-18T14:32:20.774Z,42.31
2023-05-18T14:34:55.820Z,43.19
2023-05-18T14:37:28.973Z,42.02
2023-05-18T14:40:05.969Z,43.47
2023-05-18T14:42:39.032Z,42.46
2023-05-18T14:45:12.269Z,40.39
2023-05-18T14:47:45.162Z,41.76
2023-05-18T14:50:18.227Z,44.01
2023-05-18T14:52:52.173Z,43.93
2023-05-18T14:55:26.467Z,44.29
2023-05-18T14:57:59.254Z,44.02
2023-05-18T15:00:33.719Z,41.23
2023-05-18T15:03:07.053Z,42.56
2023-05-18T15:05:43.603Z,41.03
2023-05-18T15:11:52.165Z,40.08
2023-05-18T15:14:44.037Z,41.72
2023-05-18T15:17:24.193Z,40.76
2023-05-18T15:19:57.092Z,41.59
2023-05-18T15:22:30.148Z,41.66
2023-05-18T15:25:05.370Z,43.18
2023-05-18T15:27:39.945Z,42.46
2023-05-18T15:30:13.895Z,43.25
2023-05-18T15:32:47.265Z,43.50
2023-05-18T15:35:20.510Z,43.41
2023-05-18T15:37:53.408Z,42.57
2023-05-18T15:40:30.192Z,42.87
2023-05-18T15:43:04.883Z,44.66
2023-05-18T15:45:42.021Z,43.19
2023-05-18T15:48:15.298Z,42.59
2023-05-18T15:50:48.210Z,42.63
2023-05-18T15:53:21.115Z,44.18
2023-05-18T15:55:58.778Z,43.82
2023-05-18T15:58:34.343Z,42.69
2023-05-18T16:01:07.503Z,44.39
2023-05-18T16:03:40.647Z,44.67
2023-05-18T16:06:28.515Z,45.38
2023-05-18T16:09:07.261Z,44.36
2023-05-18T16:11:40.260Z,45.43
2023-05-18T16:14:16.095Z,45.14
2023-05-18T16:16:49.144Z,46.05
2023-05-18T16:19:22.578Z,44.12
2023-05-18T16:22:01.850Z,45.13
2023-05-18T16:24:37.437Z,44.85
2023-05-18T16:27:12.694Z,44.35
2023-05-18T16:29:48.740Z,45.41
2023-05-18T16:32:22.285Z,44.62
2023-05-18T16:35:01.228Z,46.27
2023-05-18T16:37:34.411Z,45.59
2023-05-18T16:40:08.860Z,46.42
2023-05-18T16:43:08.460Z,47.62
2023-05-18T16:46:04.676Z,47.87
2023-05-18T16:48:40.118Z,48.08
2023-05-18T16:51:13.012Z,48.00
2023-05-18T16:53:45.911Z,47.76
2023-05-18T16:56:22.174Z,47.04
2023-05-18T16:58:55.039Z,48.40
2023-05-18T17:01:30.812Z,48.11
2023-05-18T17:04:03.896Z,47.97
2023-05-18T17:06:37.790Z,50.07
2023-05-18T17:09:10.654Z,48.27
2023-05-18T17:11:43.533Z,48.30
2023-05-18T17:14:33.680Z,49.43
2023-05-18T17:17:09.655Z,49.12
2023-05-18T17:19:45.990Z,50.62
2023-05-18T17:22:19.511Z,50.83
2023-05-18T17:25:11.513Z,50.69
2023-05-18T17:31:46.224Z,50.60
2023-05-18T17:34:47.510Z,51.74
2023-05-18T17:37:20.415Z,51.50
2023-05-18T17:39:53.364Z,51.65
2023-05-18T17:42:26.279Z,52.19
2023-05-18T17:44:59.544Z,53.26
2023-05-18T17:47:32.417Z,51.78
2023-05-18T17:50:07.939Z,52.25
2023-05-18T17:52:41.180Z,52.29
2023-05-18T17:55:15.128Z,52.90
2023-05-18T17:57:48.103Z,53.00
2023-05-18T18:00:21.880Z,52.36
2023-05-18T18:02:55.352Z,53.26
2023-05-18T18:05:30.520Z,53.85
2023-05-18T18:08:04.627Z,53.33
2023-05-18T18:10:37.658Z,53.63
2023-05-18T18:13:10.750Z,53.95
2023-05-18T18:15:43.801Z,54.05
2023-05-18T18:18:16.925Z,53.33
2023-05-18T18:20:51.767Z,53.99
2023-05-18T18:23:24.660Z,53.98
2023-05-18T18:25:57.507Z,53.20
2023-05-18T18:28:30.522Z,53.50
2023-05-18T18:31:03.547Z,54.26
2023-05-18T18:33:41.652Z,54.40
2023-05-18T18:36:16.040Z,53.63
2023-05-18T18:38:49.112Z,55.18
2023-05-18T18:41:22.295Z,55.17
2023-05-18T18:43:57.097Z,55.95
2023-05-18T18:46:30.141Z,55.25
2023-05-18T18:49:03.020Z,55.31
2023-05-18T18:51:37.148Z,56.71
2023-05-18T18:54:09.982Z,56.75
2023-05-18T18:56:43.965Z,57.55
2023-05-18T18:59:16.885Z,57.54
2023-05-18T19:01:49.773Z,58.11
2023-05-18T19:04:23.166Z,57.64
2023-05-18T19:07:01.899Z,57.81
2023-05-18T19:09:36.201Z,58.27
2023-05-18T19:12:09.964Z,59.27
2023-05-18T19:14:42.971Z,58.72
2023-05-18T19:17:16.243Z,58.36
2023-05-18T19:19:49.425Z,59.09
2023-05-18T19:22:23.739Z,59.02
2023-05-18T19:24:56.559Z,59.53
2023-05-18T19:27:29.631Z,58.71
2023-05-18T19:30:04.253Z,59.86
2023-05-18T19:32:37.147Z,60.97
2023-05-18T19:35:10.003Z,60.26
2023-05-18T19:37:44.628Z,61.36
2023-05-18T19:40:17.715Z,61.90
2023-05-18T19:42:50.715Z,61.47
2023-05-18T19:45:23.613Z,60.33
2023-05-18T19:47:56.429Z,61.63
2023-05-18T19:50:29.493Z,62.22
2023-05-18T19:53:03.802Z,62.53
2023-05-18T19:55:36.781Z,62.82
2023-05-18T19:58:09.764Z,63.18
2023-05-18T20:00:42.660Z,63.04
2023-05-18T20:03:16.532Z,63.07
2023-05-18T20:05:50.057Z,64.04
2023-05-18T20:08:24.250Z,64.22
2023-05-18T20:10:57.076Z,64.52
2023-05-18T20:13:30.484Z,64.68
2023-05-18T20:16:03.929Z,64.82
2023-05-18T20:18:37.708Z,65.57
2023-05-18T20:21:10.842Z,65.59
2023-05-18T20:23:47.349Z,65.34
2023-05-18T20:26:22.769Z,65.83
2023-05-18T20:28:55.782Z,64.85
2023-05-18T20:31:28.727Z,64.34
2023-05-18T20:34:01.557Z,65.25
2023-05-18T20:36:35.811Z,64.97
2023-05-18T20:39:10.188Z,64.95
2023-05-18T20:41:43.103Z,64.72
2023-05-18T20:44:17.800Z,65.54
2023-05-18T20:46:53.097Z,66.80
2023-05-18T20:49:25.924Z,66.73
2023-05-18T20:51:58.859Z,66.57
2023-05-18T20:54:33.130Z,68.46
2023-05-18T20:57:06.251Z,67.63
2023-05-18T20:59:39.072Z,69.00
2023-05-18T21:02:11.884Z,68.45
2023-05-18T21:04:44.849Z,68.69
2023-05-18T21:07:18.060Z,68.94
2023-05-18T21:09:52.541Z,68.24
2023-05-18T21:12:25.510Z,67.01
2023-05-18T21:14:58.355Z,68.01
2023-05-18T21:17:32.197Z,68.00
2023-05-18T21:20:06.045Z,68.54
2023-05-18T21:22:39.163Z,68.68
2023-05-18T21:25:13.497Z,68.54
2023-05-18T21:27:46.427Z,69.05
2023-05-18T21:30:19.735Z,68.42
2023-05-18T21:32:53.056Z,68.20
2023-05-18T21:35:26.165Z,68.98
2023-05-18T21:37:59.021Z,69.30
2023-05-18T21:40:33.390Z,68.94
2023-05-18T21:43:06.433Z,68.90
2023-05-18T21:45:39.411Z,68.68
2023-05-18T21:48:12.391Z,68.60
2023-05-18T21:50:45.218Z,68.54
2023-05-18T21:53:18.320Z,69.65
2023-05-18T21:55:52.742Z,69.52
2023-05-18T21:58:25.597Z,69.38
2023-05-18T22:00:58.544Z,69.82
2023-05-18T22:03:31.365Z,69.56
2023-05-18T22:06:05.012Z,69.99
2023-05-18T22:08:38.502Z,70.24
2023-05-18T22:11:13.008Z,70.49
2023-05-18T22:13:45.821Z,70.70
2023-05-18T22:16:18.685Z,70.93
2023-05-18T22:18:51.627Z,71.48
2023-05-18T22:21:24.652Z,71.37
2023-05-18T22:23:57.535Z,72.12
2023-05-18T22:26:31.803Z,71.12
2023-05-18T22:29:04.932Z,71.54
2023-05-18T22:31:38.045Z,72.27
2023-05-18T22:34:11.075Z,72.64
2023-05-18T22:36:44.207Z,72.15
2023-05-18T22:39:18.167Z,72.46
2023-05-18T22:41:52.886Z,72.69
2023-05-18T22:44:25.662Z,72.66
2023-05-18T22:47:00.413Z,72.82
2023-05-18T22:49:35.906Z,73.27
2023-05-18T22:52:10.312Z,73.71
2023-05-18T22:54:45.907Z,73.28
2023-05-18T22:57:21.195Z,73.19
2023-05-18T22:59:54.069Z,73.69
2023-05-18T23:02:27.298Z,73.92
2023-05-18T23:05:01.236Z,74.54
2023-05-18T23:07:36.356Z,74.33
2023-05-18T23:10:12.160Z,75.02
2023-05-18T23:12:48.356Z,75.30
2023-05-18T23:15:23.314Z,74.85
2023-05-18T23:17:56.863Z,75.10
2023-05-18T23:20:34.614Z,74.98
2023-05-18T23:23:08.859Z,75.29
2023-05-18T23:25:41.688Z,75.42
2023-05-18T23:28:16.630Z,75.71
2023-05-18T23:30:49.565Z,76.00
2023-05-18T23:33:23.244Z,76.18
2023-05-18T23:35:59.792Z,75.65
2023-05-18T23:38:37.736Z,75.95
2023-05-18T23:41:11.428Z,77.07
2023-05-18T23:43:46.389Z,77.03
2023-05-18T23:46:19.842Z,77.49
2023-05-18T23:48:53.377Z,77.92
2023-05-18T23:51:29.850Z,77.79
2023-05-18T23:54:05.286Z,78.47
2023-05-18T23:56:38.782Z,78.42
2023-05-18T23:59:15.767Z,78.15
